Tiempo atmosférico en la estación meteorológica de Valverde del Fresno, Cáceres (498 m.)



Fecha
DESCASC
Temp. máxima en grados centígrados (hora)
DESCASC
Temp. mínima en grados centígrados (hora)
DESCASC
Temp. media en grados centígrados
DESCASC
Racha de viento máxima en m/sg (hora)
DESCASC
Velocidad máxima media en intervalos de 10 minutos(hora)
DESCASC
Precipitaciones diarias en mm
DESCASC
Precipitaciones de 00:00 a 06:00 en mm
DESCASC
Precipitaciones de 06:00 a 12:00 en mm
DESCASC
Precipitaciones de 12:00 a 18:00 en mm
DESCASC
Precipitaciones de 18:00 a 24:00 en mm
DESCASC
05-04-2020 13.9 (22:20) 10.4 (12:10) 12.1 7.5 (23:00) 4.17 (22:30) 28 0 5.2 16.4 6.4
04-04-2020 17 (16:20) 7.8 (06:10) 12.4 9.72 (11:50) 6.11 (15:20) 0 0 0 0 0
03-04-2020 18.8 (17:30) 5.7 (08:30) 12.2 6.39 (13:50) 4.17 (14:50) 0 0 0 0 0
02-04-2020 17.5 (17:30) 4 (00:00) 10.8 11.39 (13:00) 7.22 (13:00) 0 0 0 0 0
01-04-2020 13.2 (18:10) 0.1 (00:00) 6.6 7.22 (17:10) 4.17 (17:20) 0 0 0 0 0
31-03-2020 9.5 (17:40) 2 (00:00) 5.8 11.11 (00:40) 5.83 (00:40) 10.2 0.4 7.2 0.8 1.8
30-03-2020 11.6 (04:40) 4.3 (00:00) 8 12.78 (21:50) 7.22 (14:10) 0.8 0 0 0 0.8
29-03-2020 19.4 (17:00) 5.3 (00:00) 12.3 6.11 (15:40) 3.33 (14:50) 0 0 0 0 0
28-03-2020 16.5 (17:00) 3.2 (00:00) 9.9 8.61 (15:40) 4.72 (15:50) 0 0 0 0 0
27-03-2020 13.8 (13:50) 5.1 (00:00) 9.5 10.83 (07:10) 6.11 (07:20) 0 0 0 0 0
26-03-2020 20 (17:50) 9.8 (00:00) 14.9 11.39 (01:20) 6.67 (01:30) 0 0 0 0 0
25-03-2020 19.9 (16:20) 6.1 (00:00) 13 6.94 (20:50) 4.17 (16:30) 0 0 0 0 0
24-03-2020 18 (13:50) 8.5 (00:00) 13.3 8.33 (12:00) 4.44 (12:00) 0.2 0 0.2 0 0
23-03-2020 16.4 (14:50) 5.8 (00:00) 11.1 8.06 (03:40) 4.17 (17:30) 1.8 0 0 1.8 0
22-03-2020 16.3 (16:10) 3.2 (07:10) 9.7 7.22 (12:00) 4.72 (12:00) 0 0 0 0 0
21-03-2020 13.2 (16:40) 5.6 (00:00) 9.4 6.11 (16:50) 3.89 (16:50) 20.6 16.4 3.4 0.8 0
20-03-2020 13.6 (02:00) 9.7 (00:00) 11.7 8.61 (13:20) 4.72 (13:20) 30.6 0 9.6 3.4 17.6
19-03-2020 17.8 (15:10) 10.2 (00:00) 14 6.67 (01:10) 3.89 (01:10) 0 0 0 0 0
18-03-2020 19.9 (14:20) 6.9 (00:00) 13.4 6.11 (14:40) 3.33 (14:40) 0 0 0 0 0
17-03-2020 16.8 (16:20) 5.5 (00:00) 11.1 11.67 (00:20) 6.94 (00:30) 0.4 0.4 0 0 0
16-03-2020 10.3 (12:20) 4.6 (00:00) 7.5 19.44 (08:40) 10.83 (09:20) 7.2 0 0 1.4 5.8
15-03-2020 19.3 (14:00) 6 (00:00) 12.6 14.17 (21:00) 8.33 (21:00) 0 0 0 0 0
14-03-2020 23.2 (16:30) 13.1 (00:00) 18.2 13.06 (09:30) 8.33 (09:20) 0 0 0 0 0
13-03-2020 20.5 (15:10) 11.8 (08:20) 16.2 12.22 (20:50) 6.94 (04:30) 0 0 0 0 0
12-03-2020 24.2 (16:10) 10.9 (00:00) 17.6 6.39 (23:50) 3.06 (23:50) 0 0 0 0 0
11-03-2020 24.8 (15:20) 9.7 (00:00) 17.2 3.89 (15:30) 3.33 (22:00) 0 0 0 0 0

Gráficas

Temp. máximas Temp. mínimas Temp. medias Precipitaciones Rachas de viento máximas Velocidades máximas media en intervalos de 10 minutos

Datos horarios

Fecha y hora oficial Temperatura (ºC) Velocidad del viento (km/h) Dirección del viento Racha (km/h) Dirección de racha Precipitación (mm) Presión (hPa) Tendencia (hPa) Humedad (%)
2020-04-09 23:00:00 13.1 4 Oeste 6 Oeste 0 -- -- 98
2020-04-09 22:00:00 13.3 0 Calma 5 Oeste 0 -- -- 98
2020-04-09 21:00:00 13.4 2 Oeste 6 Sur 0 -- -- 98
2020-04-09 20:00:00 13.5 4 Sur 6 Sur 0.4 -- -- 98
2020-04-09 19:00:00 13.6 0 Calma 5 Sudeste 0.2 -- -- 96
2020-04-09 18:00:00 13.7 2 Sur 8 Sudoeste 0 -- -- 97
2020-04-09 17:00:00 13.3 6 Sudoeste 13 Sudoeste 1 -- -- 97
2020-04-09 16:00:00 13.6 5 Sudoeste 10 Sudoeste 0.4 -- -- 95
2020-04-09 15:00:00 13.9 3 Sudoeste 12 Este 1.4 -- -- 95
2020-04-09 14:00:00 13.2 5 Sur 13 Sudeste 2.4 -- -- 97
2020-04-09 13:00:00 13.1 5 Sudeste 19 Sur 3.4 -- -- 97
2020-04-09 12:00:00 14.7 8 Sur 24 Sudoeste 0.4 -- -- 90
2020-04-09 11:00:00 14.7 4 Nordeste 8 Norte 0.4 -- -- 98
2020-04-09 10:00:00 14.2 0 Calma 6 Norte 1.6 -- -- 98
2020-04-09 09:00:00 14 0 Calma 5 Norte 1.4 -- -- 97
2020-04-09 08:00:00 13.9 3 Noroeste 5 Norte 0.6 -- -- 96
2020-04-09 07:00:00 14 5 Norte 8 Norte 0.2 -- -- 95
2020-04-09 06:00:00 14.1 4 Noroeste 5 Norte 0 -- -- 94
2020-04-09 05:00:00 14.1 4 Norte 6 Norte 0 -- -- 94
2020-04-09 04:00:00 14.3 4 Norte 5 Norte 0 -- -- 92
2020-04-09 03:00:00 14.7 0 Calma 4 Norte 0 -- -- 90
2020-04-09 02:00:00 15.1 0 Calma 6 Norte 0 -- -- 88
2020-04-09 01:00:00 15.2 5 Norte 9 Norte 0 -- -- 87
2020-04-09 00:00:00 15.4 8 Norte 9 Norte 0 -- -- 87
2020-04-08 23:00:00 15.6 5 Norte 7 Norte 0 -- -- 86
2020-04-08 22:00:00 16.2 6 Norte 8 Norte 0 -- -- 81
2020-04-08 21:00:00 17.5 5 Norte 7 Norte 0 -- -- 79
2020-04-08 20:00:00 19.7 2 Sudoeste 10 Sudoeste 0 -- -- 66
2020-04-08 19:00:00 20.4 3 Sudoeste 12 Sudoeste 0 -- -- 59
2020-04-08 18:00:00 20.5 5 Sur 15 Sudoeste 0 -- -- 60
2020-04-08 17:00:00 21 8 Sur 21 Sudeste 0 -- -- 60
2020-04-08 16:00:00 20.5 5 Noroeste 13 Sur 0 -- -- 65
2020-04-08 15:00:00 20.1 9 Sur 20 Sur 0 -- -- 63
2020-04-08 14:00:00 19.5 15 Sudeste 24 Sudeste 0 -- -- 70
2020-04-08 13:00:00 19.3 14 Sudeste 23 Sudeste 0 -- -- 73
2020-04-08 12:00:00 17.1 3 Sur 12 Sudeste 0 -- -- 85
2020-04-08 11:00:00 15.8 5 Sudoeste 8 Sudoeste 0 -- -- 89
2020-04-08 10:00:00 14.5 5 Sur 10 Noroeste 0 -- -- 99
2020-04-08 09:00:00 11.4 3 Norte 5 Oeste 0 -- -- 98
2020-04-08 08:00:00 11.9 4 Oeste 6 Oeste 0 -- -- 98
2020-04-08 07:00:00 12.9 3 Norte 4 Norte 0 -- -- 97
2020-04-08 06:00:00 13.1 3 Norte 4 Norte 0 -- -- 97
2020-04-08 05:00:00 13.4 0 Calma 5 Oeste 0 -- -- 95
2020-04-08 04:00:00 13.6 5 Oeste 6 Sudoeste 0 -- -- 94
2020-04-08 03:00:00 14.2 3 Oeste 5 Oeste 0 -- -- 93
2020-04-08 02:00:00 14.6 2 Oeste 6 Norte 0 -- -- 91
2020-04-08 01:00:00 14.6 0 Calma 5 Norte 0 -- -- 90
2020-04-08 00:00:00 14.7 2 Norte 5 Norte 0 -- -- 91
2020-04-07 23:00:00 15.2 0 Calma 9 Norte 0 -- -- 90
2020-04-07 22:00:00 16 0 Calma 9 Sudeste 0 -- -- 86
2020-04-07 21:00:00 16.6 4 Sudeste 14 Sudeste 0 -- -- 81
2020-04-07 20:00:00 18.2 6 Sur 14 Sur 0 -- -- 75
2020-04-07 19:00:00 18.3 4 Sudeste 13 Sur 0 -- -- 79
2020-04-07 18:00:00 18.1 7 Sur 17 Sur 0 -- -- 81
2020-04-07 17:00:00 17.5 10 Sur 17 Sur 0.2 -- -- 87
2020-04-07 16:00:00 17.8 5 Este 10 Norte 0 -- -- 82
2020-04-07 15:00:00 16.5 4 Nordeste 21 Sur 1.4 -- -- 90
2020-04-07 14:00:00 15.9 8 Sudeste 19 Sudeste 0 -- -- 91
2020-04-07 13:00:00 14.6 10 Sudeste 21 Sudeste 0 -- -- 94
2020-04-07 12:00:00 14.3 11 Sudeste 18 Sudeste 0 -- -- 96
2020-04-07 11:00:00 13.6 8 Sudeste 19 Sudeste 0 -- -- 96
2020-04-07 10:00:00 13.1 6 Sudeste 14 Sudeste 0 -- -- 97
2020-04-07 09:00:00 12.7 2 Sur 7 Este 0 -- -- 97
2020-04-07 08:00:00 12.6 3 Oeste 6 Sur 0 -- -- 97
2020-04-07 07:00:00 12.5 0 Calma 5 Norte 0.2 -- -- 97
2020-04-07 06:00:00 12.6 0 Calma 6 Oeste 0.2 -- -- 96
2020-04-07 05:00:00 12.4 0 Calma 6 Sudoeste 0.6 -- -- 96
2020-04-07 04:00:00 12.5 2 Este 9 Nordeste 0.8 -- -- 96
2020-04-07 03:00:00 12.7 4 Sudeste 18 Sudeste 1.6 -- -- 96
2020-04-07 02:00:00 12.7 2 Sudoeste 8 Sudeste 4.6 -- -- 96
2020-04-07 01:00:00 12.9 0 Calma 6 Este 0 -- -- 94
2020-04-07 00:00:00 13 0 Calma 9 Sudeste 0.2 -- -- 95
2020-04-06 23:00:00 13.1 2 Sudeste 9 Sur 0 -- -- 94
2020-04-06 22:00:00 13.3 5 Sudeste 13 Sur 0.4 -- -- 93
2020-04-06 21:00:00 13.8 0 Calma 6 Este 0 -- -- 92
2020-04-06 20:00:00 14.3 3 Este 9 Sudeste 0 -- -- 89
2020-04-06 19:00:00 14.2 5 Sur 11 Sudeste 0 -- -- 89
2020-04-06 18:00:00 14.2 4 Sudeste 7 Este 0 -- -- 89
2020-04-06 17:00:00 14 3 Sudeste 9 Sur 0.2 -- -- 88
2020-04-06 16:00:00 14.5 6 Sudeste 15 Sur 0.2 -- -- 80
2020-04-06 15:00:00 14.5 5 Sur 17 Sur 0 -- -- 82
2020-04-06 14:00:00 14.3 6 Sudeste 14 Sudeste 0 -- -- 82
2020-04-06 13:00:00 12.8 6 Sur 11 Sudeste 0 -- -- 91
2020-04-06 12:00:00 12.5 7 Sur 12 Sur 0 -- -- 91
2020-04-06 11:00:00 12.2 2 Sur 6 Sur 0 -- -- 93
2020-04-06 10:00:00 11.5 2 Sur 4 Sudeste 0 -- -- 95
2020-04-06 09:00:00 10.5 3 Norte 6 Este 0 -- -- 97
2020-04-06 08:00:00 10.5 3 Este 9 Sudoeste 0 -- -- 96
2020-04-06 07:00:00 11 4 Sur 12 Sudoeste 0 -- -- 96
2020-04-06 06:00:00 11.6 6 Sudoeste 13 Oeste 0 -- -- 94
2020-04-06 05:00:00 12.3 5 Sudoeste 13 Sudoeste 0 -- -- 96
2020-04-06 04:00:00 12.7 9 Sudoeste 15 Sudoeste 0 -- -- 97
2020-04-06 03:00:00 13.1 3 Sur 14 Sur 0 -- -- 97
2020-04-06 02:00:00 13.4 8 Sur 20 Sur 0 -- -- 98
2020-04-06 01:00:00 13.6 10 Sur 23 Sur 0 -- -- 97
2020-04-06 00:00:00 13.7 11 Sur 24 Sur 0.6 -- -- 97
2020-04-05 23:00:00 13.8 13 Sur 27 Sur 0 -- -- 96
2020-04-05 22:00:00 13.8 13 Sur 25 Sur 0.2 -- -- 96
2020-04-05 21:00:00 13.6 11 Sur 22 Sur 0.8 -- -- 97
2020-04-05 20:00:00 13.6 9 Sur 18 Este 4 -- -- 96
2020-04-05 19:00:00 13.7 0 Calma 10 Sudeste 0.8 -- -- 95
2020-04-05 18:00:00 13.3 0 Calma 14 Sudeste 1 -- -- 95
2020-04-05 17:00:00 13 9 Sudeste 17 Sudeste 1.8 -- -- 95
2020-04-05 16:00:00 12.7 6 Sudeste 27 Sudeste 1.6 -- -- 95
2020-04-05 15:00:00 12.1 8 Sudeste 14 Sudeste 3.4 -- -- 95
2020-04-05 14:00:00 11.7 3 Sudoeste 9 Sudeste 2.6 -- -- 92
2020-04-05 13:00:00 10.7 4 Nordeste 9 Nordeste 6 -- -- 95
2020-04-05 12:00:00 10.5 2 Norte 21 Este 4.6 -- -- 90
2020-04-05 11:00:00 11.2 6 Sudeste 22 Este 0.2 -- -- 82
2020-04-05 10:00:00 11.2 5 Sudeste 16 Este 0 -- -- 80
2020-04-05 09:00:00 11.2 7 Este 20 Este 0 -- -- 83
2020-04-05 08:00:00 11.4 7 Sudeste 15 Este 0.4 -- -- 85
2020-04-05 07:00:00 11.7 6 Sudeste 13 Sudeste 0 -- -- 81
2020-04-05 06:00:00 11.8 4 Sudoeste 9 Sudeste 0 -- -- 80
2020-04-05 05:00:00 12.2 2 Sur 12 Sudeste 0 -- -- 77
2020-04-05 04:00:00 12.6 8 Sudeste 19 Sudeste 0 -- -- 75
2020-04-05 03:00:00 12.4 0 Calma 11 Sur 0 -- -- 76
2020-04-05 02:00:00 12.4 3 Sur 12 Sur 0 -- -- 78
2020-04-05 01:00:00 11.9 2 Norte 9 Oeste 0 -- -- 81
2020-04-05 00:00:00 12.1 4 Noroeste 10 Nordeste 0 -- -- 82
2020-04-04 23:00:00 12.7 4 Sudoeste 17 Sudoeste 0 -- -- 75
2020-04-04 22:00:00 13.7 9 Sudoeste 20 Sudoeste 0 -- -- 68
2020-04-04 21:00:00 14.6 10 Sur 21 Sur 0 -- -- 62
2020-04-04 20:00:00 15.3 8 Sur 26 Sur 0 -- -- 57
2020-04-04 19:00:00 16 16 Sur 35 Sur 0 -- -- 52
2020-04-04 18:00:00 16.4 19 Sur 33 Sur 0 -- -- 54
2020-04-04 17:00:00 16.7 19 Sudeste 29 Sur 0 -- -- 51
2020-04-04 16:00:00 16.7 15 Sudeste 34 Sur 0 -- -- 51
2020-04-04 15:00:00 16.4 15 Sur 29 Sudeste 0 -- -- 59
2020-04-04 14:00:00 15.8 17 Sudeste 34 Sudeste 0 -- -- 60
2020-04-04 13:00:00 15.8 18 Sudeste 33 Sudeste 0 -- -- 60
2020-04-04 12:00:00 15.1 17 Sudeste 35 Sudeste 0 -- -- 59
2020-04-04 11:00:00 14.8 15 Este 26 Este 0 -- -- 58
2020-04-04 10:00:00 12.5 8 Este 18 Sudeste 0 -- -- 61
2020-04-04 09:00:00 10.9 11 Sudeste 21 Sudeste 0 -- -- 64
2020-04-04 08:00:00 9.9 7 Sudoeste 17 Sur 0 -- -- 67
2020-04-04 07:00:00 8.9 5 Noroeste 13 Norte 0 -- -- 70
2020-04-04 06:00:00 8 6 Sudoeste 10 Sudoeste 0 -- -- 74
2020-04-04 05:00:00 9.3 3 Norte 10 Norte 0 -- -- 64
2020-04-04 04:00:00 8.4 5 Oeste 8 Oeste 0 -- -- 76
2020-04-04 03:00:00 9.6 3 Norte 11 Norte 0 -- -- 72
2020-04-04 02:00:00 9.2 2 Norte 10 Norte 0 -- -- 74
2020-04-04 01:00:00 10.3 3 Norte 12 Norte 0 -- -- 69
2020-04-04 00:00:00 10.3 9 Norte 13 Norte 0 -- -- 69
2020-04-03 23:00:00 11 10 Norte 12 Norte 0 -- -- 65
2020-04-03 22:00:00 11.4 11 Norte 13 Norte 0 -- -- 63
2020-04-03 21:00:00 15 2 Este 10 Sur 0 -- -- 50
2020-04-03 20:00:00 17.4 8 Sudeste 17 Sudeste 0 -- -- 43
2020-04-03 19:00:00 18.3 12 Sur 22 Sur 0 -- -- 42
2020-04-03 18:00:00 18.7 11 Sur 22 Sur 0 -- -- 44
2020-04-03 17:00:00 18.6 13 Sur 21 Sudeste 0 -- -- 46
2020-04-03 16:00:00 18.4 12 Sudeste 23 Sudeste 0 -- -- 47
2020-04-03 15:00:00 18.4 11 Sur 23 Sur 0 -- -- 53
2020-04-03 14:00:00 17.9 12 Sur 23 Sur 0 -- -- 48
2020-04-03 13:00:00 17.1 12 Sur 21 Sur 0 -- -- 53
2020-04-03 12:00:00 15.9 8 Sur 13 Sudoeste 0 -- -- 59
2020-04-03 11:00:00 13.2 4 Sudoeste 9 Sudoeste 0 -- -- 62
2020-04-03 10:00:00 10.8 2 Sur 7 Norte 0 -- -- 70
2020-04-03 09:00:00 6.5 3 Norte 8 Oeste 0 -- -- 83
2020-04-03 08:00:00 6.4 3 Sudoeste 10 Norte 0 -- -- 77
2020-04-03 07:00:00 7.5 3 Noroeste 10 Norte 0 -- -- 73
2020-04-03 06:00:00 8.1 7 Norte 11 Norte 0 -- -- 74
2020-04-03 05:00:00 9 5 Norte 10 Norte 0 -- -- 71
2020-04-03 04:00:00 8.8 9 Norte 14 Nordeste 0 -- -- 73
2020-04-03 03:00:00 8.7 6 Noroeste 12 Noroeste 0 -- -- 75
2020-04-03 02:00:00 8.6 4 Sudeste 17 Norte 0 -- -- 77
2020-04-03 01:00:00 8.9 2 Oeste 15 Norte 0 -- -- 76
2020-04-03 00:00:00 11.2 9 Norte 29 Sudeste 0 -- -- 67
2020-04-02 23:00:00 12.4 4 Norte 27 Nordeste 0 -- -- 60
2020-04-02 22:00:00 12.5 8 Norte 17 Oeste 0 -- -- 64
2020-04-02 21:00:00 13.4 9 Norte 19 Nordeste 0 -- -- 61
2020-04-02 20:00:00 15.2 13 Nordeste 32 Nordeste 0 -- -- 55
2020-04-02 19:00:00 16.9 12 Nordeste 31 Nordeste 0 -- -- 50
2020-04-02 18:00:00 17.2 17 Nordeste 31 Nordeste 0 -- -- 47
2020-04-02 17:00:00 16.1 11 Nordeste 31 Nordeste 0 -- -- 56
2020-04-02 16:00:00 15.4 14 Nordeste 34 Nordeste 0 -- -- 55
2020-04-02 15:00:00 16.3 22 Nordeste 35 Nordeste 0 -- -- 52
2020-04-02 14:00:00 14.5 26 Nordeste 41 Norte 0 -- -- 60
2020-04-02 13:00:00 13.5 26 Nordeste 41 Nordeste 0 -- -- 65
2020-04-02 12:00:00 10.8 15 Norte 40 Norte 0 -- -- 71
2020-04-02 11:00:00 11.2 18 Norte 36 Norte 0 -- -- 69
2020-04-02 10:00:00 11 13 Norte 26 Norte 0 -- -- 70
2020-04-02 09:00:00 8.3 8 Norte 22 Norte 0 -- -- 78
2020-04-02 08:00:00 5.7 4 Oeste 30 Nordeste 0 -- -- 84
2020-04-02 07:00:00 4 3 Sudoeste 8 Sudoeste 0 -- -- 94
2020-04-02 06:00:00 4.3 0 Calma 3 Sudoeste 0 -- -- 95
2020-04-02 05:00:00 4.9 0 Calma 11 Norte 0 -- -- 96
2020-04-02 04:00:00 5.3 6 Noroeste 12 Norte 0 -- -- 93
2020-04-02 03:00:00 6.1 5 Nordeste 7 Nordeste 0 -- -- 93
2020-04-02 02:00:00 6.8 3 Oeste 14 Sudoeste 0 -- -- 88
2020-04-02 01:00:00 7.1 5 Noroeste 10 Noroeste 0 -- -- 78
2020-04-02 00:00:00 7.8 5 Norte 9 Nordeste 0 -- -- 79
2020-04-01 23:00:00 8.1 5 Nordeste 9 Norte 0 -- -- 84
2020-04-01 22:00:00 8.2 3 Norte 5 Sudoeste 0 -- -- 83
2020-04-01 21:00:00 9.8 3 Sudoeste 17 Sudeste 0 -- -- 73
2020-04-01 20:00:00 11.7 9 Sudeste 23 Sudeste 0 -- -- 59
2020-04-01 19:00:00 11.7 10 Sudeste 24 Sudeste 0 -- -- 55
2020-04-01 18:00:00 12.9 12 Sur 26 Este 0 -- -- 52
2020-04-01 17:00:00 12.8 12 Sudeste 24 Sudeste 0 -- -- 59
2020-04-01 16:00:00 11.2 12 Sudeste 24 Sur 0 -- -- 62
2020-04-01 15:00:00 11 10 Sudeste 22 Sudeste 0 -- -- 71
2020-04-01 14:00:00 10.4 9 Sur 18 Sudeste 0 -- -- 67
2020-04-01 13:00:00 9.2 6 Sur 12 Sudoeste 0 -- -- 80
2020-04-01 12:00:00 6.5 2 Oeste 8 Sudoeste 0 -- -- 92
2020-04-01 11:00:00 5 3 Oeste 6 Oeste 0 -- -- 98
2020-04-01 10:00:00 2.8 0 Calma 7 Nordeste 0 -- -- 100
2020-04-01 09:00:00 0.4 0 Calma 4 Norte 0 -- -- 99
2020-04-01 08:00:00 0.2 3 Nordeste 5 Sudoeste 0 -- -- 98
2020-04-01 07:00:00 1.5 0 Calma 3 Noroeste 0 -- -- 98
2020-04-01 06:00:00 2.1 4 Norte 10 Norte 0 -- -- 97
2020-04-01 05:00:00 2.1 8 Norte 9 Norte 0 -- -- 98
2020-04-01 04:00:00 2.4 7 Norte 9 Norte 0 -- -- 97
2020-04-01 03:00:00 3.1 3 Norte 8 Norte 0 -- -- 97
2020-04-01 02:00:00 4.1 0 Calma 5 Norte 0 -- -- 96
2020-04-01 01:00:00 5.7 0 Calma 11 Sur 0 -- -- 94
2020-04-01 00:00:00 6.8 0 Calma 15 Sudoeste 0 -- -- 95
2020-03-31 23:00:00 7.2 10 Sudoeste 21 Oeste 0 -- -- 94
2020-03-31 22:00:00 8.4 10 Sudoeste 22 Oeste 0 -- -- 94
2020-03-31 21:00:00 9 6 Sur 13 Sur 0 -- -- 96
2020-03-31 20:00:00 8.9 6 Sudoeste 13 Sudoeste 0.6 -- -- 97
2020-03-31 19:00:00 9 5 Sudoeste 14 Sudeste 1.2 -- -- 95
2020-03-31 18:00:00 9.4 11 Sudeste 23 Sudeste 0 -- -- 89
2020-03-31 17:00:00 9.3 13 Sudeste 28 Sudeste 0 -- -- 88
2020-03-31 16:00:00 8.8 11 Sudeste 21 Sudeste 0 -- -- 89
2020-03-31 15:00:00 7.4 4 Noroeste 10 Oeste 0.4 -- -- 93
2020-03-31 14:00:00 6.5 5 Oeste 10 Oeste 0.2 -- -- 94
2020-03-31 13:00:00 5.4 0 Calma 6 Oeste 0.2 -- -- 93
2020-03-31 12:00:00 4.1 0 Calma 5 Sudeste 0 -- -- 96
2020-03-31 11:00:00 2.9 4 Sudoeste 6 Sudoeste 0.6 -- -- 96
2020-03-31 10:00:00 2.3 0 Calma 5 Sur 1.2 -- -- 95
2020-03-31 09:00:00 2 2 Sur 6 Sudoeste 1.8 -- -- 94
2020-03-31 08:00:00 2.5 3 Oeste 6 Sudoeste 2.2 -- -- 90
2020-03-31 07:00:00 3.4 4 Sudoeste 16 Nordeste 1.4 -- -- 85
2020-03-31 06:00:00 3.8 11 Nordeste 34 Nordeste 0.4 -- -- 82
2020-03-31 05:00:00 4.5 16 Nordeste 32 Nordeste 0 -- -- 73
2020-03-31 04:00:00 4.6 11 Nordeste 22 Nordeste 0 -- -- 72
2020-03-31 03:00:00 4.6 8 Norte 37 Nordeste 0 -- -- 71
2020-03-31 02:00:00 4.6 12 Nordeste 35 Nordeste 0 -- -- 75
2020-03-31 01:00:00 4.6 18 Norte 40 Nordeste 0 -- -- 75
2020-03-31 00:00:00 4.6 17 Norte 43 Norte 0 -- -- 76
2020-03-30 23:00:00 4.5 22 Nordeste 42 Nordeste 0 -- -- 78
2020-03-30 22:00:00 4.4 20 Nordeste 46 Nordeste 0.8 -- -- 79
2020-03-30 21:00:00 4.9 18 Nordeste 42 Nordeste 0 -- -- 73
2020-03-30 20:00:00 5.5 19 Nordeste 42 Nordeste 0 -- -- 72
2020-03-30 19:00:00 6.8 16 Nordeste 42 Nordeste 0 -- -- 65
2020-03-30 18:00:00 8.1 20 Nordeste 38 Nordeste 0 -- -- 56
2020-03-30 17:00:00 9.1 23 Nordeste 38 Nordeste 0 -- -- 53
2020-03-30 16:00:00 9.5 21 Nordeste 35 Nordeste 0 -- -- 54
2020-03-30 15:00:00 9.7 22 Nordeste 37 Nordeste 0 -- -- 57
2020-03-30 14:00:00 9.6 21 Nordeste 39 Nordeste 0 -- -- 56
2020-03-30 13:00:00 10.2 21 Nordeste 38 Nordeste 0 -- -- 58
2020-03-30 12:00:00 10.6 21 Nordeste 35 Nordeste 0 -- -- 59
2020-03-30 11:00:00 9.7 19 Nordeste 39 Nordeste 0 -- -- 64
2020-03-30 10:00:00 9.4 14 Nordeste 31 Nordeste 0 -- -- 66
2020-03-30 09:00:00 8.7 13 Nordeste 34 Nordeste 0 -- -- 69
2020-03-30 08:00:00 8.7 10 Nordeste 31 Nordeste 0 -- -- 68
2020-03-30 07:00:00 9.4 12 Norte 22 Norte 0 -- -- 67
2020-03-30 06:00:00 10.6 8 Norte 13 Norte 0 -- -- 67
2020-03-30 05:00:00 11.3 8 Norte 22 Norte 0 -- -- 71
2020-03-30 04:00:00 11.1 6 Norte 14 Norte 0 -- -- 72
2020-03-30 03:00:00 9.1 2 Oeste 7 Norte 0 -- -- 82
2020-03-30 02:00:00 9.8 0 Calma 5 Norte 0 -- -- 77
2020-03-30 01:00:00 10.4 4 Norte 7 Norte 0 -- -- 73
2020-03-30 00:00:00 10.6 4 Nordeste 10 Norte 0 -- -- 74
2020-03-29 23:00:00 10.6 8 Norte 12 Norte 0 -- -- 67
2020-03-29 22:00:00 11.3 9 Norte 11 Norte 0 -- -- 63
2020-03-29 21:00:00 12.7 8 Norte 10 Norte 0 -- -- 63
2020-03-29 20:00:00 16.7 5 Oeste 18 Sudoeste 0 -- -- 44
2020-03-29 19:00:00 17.4 11 Sudoeste 20 Sudoeste 0 -- -- 44
2020-03-29 18:00:00 18.4 4 Sudeste 15 Sudoeste 0 -- -- 41
2020-03-29 17:00:00 19.4 4 Sudeste 16 Sur 0 -- -- 36
2020-03-29 16:00:00 18.6 7 Sur 22 Sudoeste 0 -- -- 41
2020-03-29 15:00:00 18.3 7 Sur 19 Sur 0 -- -- 41
2020-03-29 14:00:00 17.6 10 Sudoeste 19 Sur 0 -- -- 42
2020-03-29 13:00:00 16.7 5 Sudoeste 13 Sur 0 -- -- 48
2020-03-29 12:00:00 15.5 3 Sur 6 Sudoeste 0 -- -- 49
2020-03-29 11:00:00 12.8 3 Sur 5 Sur 0 -- -- 62
2020-03-29 10:00:00 9.9 0 Calma 3 Sudeste 0 -- -- 70
2020-03-29 09:00:00 6.5 4 Norte 9 Norte 0 -- -- 79
2020-03-29 08:00:00 5.4 4 Norte 5 Norte 0 -- -- 85
2020-03-29 07:00:00 6.3 0 Calma 3 Noroeste 0 -- -- 81
2020-03-29 06:00:00 6.7 0 Calma 9 Norte 0 -- -- 82
2020-03-29 05:00:00 7.3 4 Norte 12 Norte 0 -- -- 79
2020-03-29 03:00:00 7.8 7 Norte 10 Norte 0 -- -- 75
2020-03-29 01:00:00 8.4 8 Norte 11 Norte 0 -- -- 70
2020-03-29 00:00:00 8.3 8 Norte 9 Norte 0 -- -- 71
2020-03-28 23:00:00 8.4 7 Norte 9 Norte 0 -- -- 68
2020-03-28 22:00:00 9.4 6 Noroeste 13 Norte 0 -- -- 66
2020-03-28 21:00:00 9.9 11 Norte 12 Norte 0 -- -- 65
2020-03-28 20:00:00 12.4 5 Norte 13 Sudeste 0 -- -- 57
2020-03-28 19:00:00 15.3 8 Sudeste 18 Este 0 -- -- 44
2020-03-28 18:00:00 16 8 Sudeste 26 Este 0 -- -- 44
2020-03-28 17:00:00 16.5 14 Sudeste 27 Este 0 -- -- 43
2020-03-28 16:00:00 15.7 13 Sudeste 31 Sudeste 0 -- -- 46
2020-03-28 15:00:00 15.6 12 Sudeste 27 Este 0 -- -- 52
2020-03-28 14:00:00 14.7 15 Sudeste 28 Este 0 -- -- 48
2020-03-28 13:00:00 14.1 4 Noroeste 15 Sur 0 -- -- 56
2020-03-28 12:00:00 13.3 5 Sudeste 12 Sudoeste 0 -- -- 57
2020-03-28 11:00:00 11.4 5 Sudoeste 11 Sudoeste 0 -- -- 59
2020-03-28 10:00:00 9 4 Sur 9 Sur 0 -- -- 80
2020-03-28 09:00:00 5.8 0 Calma 5 Nordeste 0 -- -- 86
2020-03-28 08:00:00 3.9 0 Calma 10 Norte 0 -- -- 89
2020-03-28 07:00:00 3.5 7 Norte 9 Norte 0 -- -- 89
2020-03-28 06:00:00 3.4 4 Norte 8 Norte 0 -- -- 88
2020-03-28 05:00:00 3.7 8 Norte 12 Norte 0 -- -- 87
2020-03-28 04:00:00 3.8 10 Norte 12 Norte 0 -- -- 86
2020-03-28 03:00:00 4.7 3 Sudoeste 11 Norte 0 -- -- 80
2020-03-28 02:00:00 4.5 9 Norte 13 Norte 0 -- -- 79
2020-03-28 01:00:00 5.6 6 Norte 14 Este 0 -- -- 73
2020-03-28 00:00:00 5.1 10 Norte 12 Norte 0 -- -- 76
2020-03-27 23:00:00 6.4 5 Norte 11 Norte 0 -- -- 71
2020-03-27 22:00:00 7.3 6 Norte 12 Nordeste 0 -- -- 69
2020-03-27 21:00:00 8.1 4 Norte 13 Este 0 -- -- 65
2020-03-27 20:00:00 9.9 3 Este 20 Este 0 -- -- 58
2020-03-27 19:00:00 11.8 8 Sudeste 20 Sudeste 0 -- -- 55
2020-03-27 18:00:00 12.1 12 Este 21 Sudeste 0 -- -- 54
2020-03-27 17:00:00 11.9 6 Sudeste 20 Sudeste 0 -- -- 57
2020-03-27 16:00:00 11.5 12 Sudeste 24 Sudeste 0 -- -- 59
2020-03-27 15:00:00 12.9 15 Sudeste 32 Sudeste 0 -- -- 57
2020-03-27 14:00:00 13.6 14 Sur 27 Sudeste 0 -- -- 55
2020-03-27 13:00:00 12.8 7 Sudeste 23 Este 0 -- -- 51
2020-03-27 12:00:00 13.1 9 Este 21 Nordeste 0 -- -- 47
2020-03-27 11:00:00 11.8 8 Sur 14 Sudeste 0 -- -- 61
2020-03-27 10:00:00 10.3 4 Sur 12 Sur 0 -- -- 57
2020-03-27 09:00:00 8.2 5 Noroeste 26 Nordeste 0 -- -- 59
2020-03-27 08:00:00 6.6 8 Nordeste 39 Nordeste 0 -- -- 62
2020-03-27 07:00:00 5.7 10 Norte 21 Norte 0 -- -- 65
2020-03-27 06:00:00 7.1 3 Oeste 21 Nordeste 0 -- -- 77
2020-03-27 05:00:00 7.7 8 Norte 24 Norte 0 -- -- 76
2020-03-27 04:00:00 8.7 9 Norte 26 Nordeste 0 -- -- 71
2020-03-27 03:00:00 9.3 10 Norte 35 Norte 0 -- -- 67
2020-03-27 02:00:00 11.1 17 Norte 32 Norte 0 -- -- 58
2020-03-27 01:00:00 10 5 Noroeste 27 Sur 0 -- -- 65
2020-03-27 00:00:00 10.1 2 Noroeste 18 Norte 0 -- -- 66
2020-03-26 23:00:00 11.5 4 Norte 18 Sudeste 0 -- -- 60
2020-03-26 22:00:00 12.3 5 Norte 23 Norte 0 -- -- 61
2020-03-26 21:00:00 13.3 12 Norte 24 Norte 0 -- -- 59
2020-03-26 20:00:00 15.2 11 Noroeste 23 Noroeste 0 -- -- 52
2020-03-26 19:00:00 17.7 11 Norte 23 Norte 0 -- -- 38
2020-03-26 18:00:00 19.7 9 Noroeste 25 Noroeste 0 -- -- 35
2020-03-26 17:00:00 19.6 15 Norte 33 Norte 0 -- -- 36
2020-03-26 16:00:00 19.4 13 Norte 28 Norte 0 -- -- 38
2020-03-26 15:00:00 18.9 13 Noroeste 27 Noroeste 0 -- -- 38
2020-03-26 14:00:00 18.7 10 Norte 35 Norte 0 -- -- 39
2020-03-26 13:00:00 17.5 17 Norte 34 Norte 0 -- -- 32
2020-03-26 12:00:00 16.1 17 Noroeste 35 Noroeste 0 -- -- 31
2020-03-26 11:00:00 15.1 13 Norte 33 Norte 0 -- -- 40
2020-03-26 10:00:00 13.1 10 Noroeste 33 Noroeste 0 -- -- 53
2020-03-26 09:00:00 12.3 13 Noroeste 26 Noroeste 0 -- -- 55
2020-03-26 08:00:00 10.3 10 Noroeste 26 Noroeste 0 -- -- 66
2020-03-26 07:00:00 10.2 15 Noroeste 27 Norte 0 -- -- 66
2020-03-26 06:00:00 10.5 17 Norte 30 Norte 0 -- -- 65
2020-03-26 05:00:00 10.6 12 Norte 24 Norte 0 -- -- 66
2020-03-26 04:00:00 11.7 5 Sur 18 Nordeste 0 -- -- 62
2020-03-26 03:00:00 12.4 6 Oeste 41 Norte 0 -- -- 62
2020-03-26 02:00:00 13.1 20 Norte 41 Norte 0 -- -- 59
2020-03-26 01:00:00 13.1 20 Norte 39 Norte 0 -- -- 58
2020-03-26 00:00:00 13 10 Sur 23 Norte 0 -- -- 61
2020-03-25 23:00:00 13.6 7 Noroeste 22 Noroeste 0 -- -- 62
2020-03-25 22:00:00 13.4 7 Noroeste 19 Noroeste 0 -- -- 67
2020-03-25 21:00:00 14.6 4 Nordeste 25 Norte 0 -- -- 59
2020-03-25 20:00:00 13.9 8 Norte 10 Norte 0 -- -- 75
2020-03-25 19:00:00 16.9 8 Oeste 24 Sudoeste 0 -- -- 63
2020-03-25 18:00:00 19.4 9 Oeste 20 Sudoeste 0 -- -- 52
2020-03-25 17:00:00 17.8 11 Noroeste 24 Noroeste 0 -- -- 49
2020-03-25 16:00:00 19.2 8 Sudeste 20 Sudoeste 0 -- -- 57
2020-03-25 15:00:00 18.3 6 Sudoeste 18 Sur 0 -- -- 55
2020-03-25 14:00:00 17.1 8 Sudoeste 17 Sudoeste 0 -- -- 62
2020-03-25 13:00:00 17.5 8 Sudoeste 15 Sudeste 0 -- -- 59
2020-03-25 12:00:00 15.9 6 Sudeste 14 Sur 0 -- -- 63
2020-03-25 11:00:00 14.4 6 Sur 11 Sur 0 -- -- 65
2020-03-25 10:00:00 13 6 Sur 9 Sur 0 -- -- 71
2020-03-25 09:00:00 10.8 0 Calma 6 Norte 0 -- -- 87
2020-03-25 08:00:00 6.7 4 Norte 8 Norte 0 -- -- 95
2020-03-25 07:00:00 6.3 3 Norte 6 Norte 0 -- -- 93
2020-03-25 06:00:00 7 0 Calma 10 Norte 0 -- -- 91
2020-03-25 05:00:00 7.4 7 Norte 8 Norte 0 -- -- 92
2020-03-25 04:00:00 7.8 3 Noroeste 10 Norte 0 -- -- 91
2020-03-25 03:00:00 8.3 7 Norte 11 Norte 0 -- -- 89
2020-03-25 02:00:00 9.4 3 Norte 13 Norte 0 -- -- 84
2020-03-25 01:00:00 9.8 12 Norte 14 Norte 0 -- -- 82
2020-03-25 00:00:00 10.1 7 Norte 10 Norte 0 -- -- 84
2020-03-24 23:00:00 11.2 9 Norte 10 Norte 0 -- -- 79
2020-03-24 22:00:00 12.2 4 Noroeste 8 Norte 0 -- -- 74
2020-03-24 21:00:00 12 6 Norte 13 Norte 0 -- -- 75
2020-03-24 20:00:00 14.2 5 Sudeste 12 Este 0 -- -- 65
2020-03-24 19:00:00 15.9 2 Sudeste 14 Sur 0 -- -- 62
2020-03-24 18:00:00 16.6 3 Oeste 17 Sudeste 0 -- -- 59
2020-03-24 17:00:00 16.9 8 Este 20 Sudeste 0 -- -- 56
2020-03-24 16:00:00 17.2 9 Este 24 Sudeste 0 -- -- 52
2020-03-24 15:00:00 16.3 11 Sudeste 26 Sudeste 0 -- -- 58
2020-03-24 14:00:00 17.8 12 Sudeste 26 Sudeste 0 -- -- 55
2020-03-24 13:00:00 16.1 10 Sudeste 24 Sudeste 0 -- -- 58
2020-03-24 12:00:00 16.5 16 Sudeste 30 Este 0.2 -- -- 54
2020-03-24 11:00:00 13.7 3 Sudoeste 8 Sudoeste 0 -- -- 71
2020-03-24 10:00:00 13.5 4 Sur 14 Nordeste 0 -- -- 70
2020-03-24 09:00:00 13.1 10 Nordeste 21 Este 0 -- -- 69
2020-03-24 08:00:00 10.8 12 Nordeste 21 Nordeste 0 -- -- 71
2020-03-24 07:00:00 9.6 6 Norte 13 Norte 0 -- -- 76
2020-03-24 06:00:00 10.5 6 Norte 16 Sudeste 0 -- -- 75
2020-03-24 05:00:00 10.7 5 Este 14 Este 0 -- -- 76
2020-03-24 04:00:00 10.9 5 Sudeste 12 Este 0 -- -- 73
2020-03-24 03:00:00 11 5 Sur 15 Este 0 -- -- 72
2020-03-24 02:00:00 10 4 Este 13 Sudeste 0 -- -- 76
2020-03-24 01:00:00 8.8 3 Noroeste 19 Este 0 -- -- 81
2020-03-24 00:00:00 8.5 0 Calma 11 Este 0 -- -- 85
2020-03-23 23:00:00 8.2 7 Norte 14 Norte 0 -- -- 88
2020-03-23 22:00:00 8 8 Norte 13 Norte 0 -- -- 90
2020-03-23 21:00:00 7.9 6 Norte 9 Norte 0 -- -- 94
2020-03-23 20:00:00 8.9 8 Norte 12 Noroeste 0 -- -- 93
2020-03-23 19:00:00 10.8 6 Norte 9 Norte 0 -- -- 92
2020-03-23 18:00:00 11.1 3 Norte 26 Este 0.6 -- -- 87
2020-03-23 17:00:00 14.9 5 Sur 10 Sur 0 -- -- 70
2020-03-23 16:00:00 12.5 4 Nordeste 27 Sudeste 1.2 -- -- 87
2020-03-23 15:00:00 16.3 3 Este 10 Sudeste 0 -- -- 61
2020-03-23 14:00:00 14.8 8 Sudeste 13 Sur 0 -- -- 65
2020-03-23 13:00:00 14.8 3 Sur 13 Sur 0 -- -- 66
2020-03-23 12:00:00 14.4 6 Sudeste 14 Sur 0 -- -- 67
2020-03-23 11:00:00 14 5 Sudoeste 11 Oeste 0 -- -- 72
2020-03-23 10:00:00 11.8 3 Nordeste 6 Noroeste 0 -- -- 76
2020-03-23 09:00:00 8.1 0 Calma 9 Norte 0 -- -- 91
2020-03-23 08:00:00 6.2 9 Norte 12 Norte 0 -- -- 95
2020-03-23 07:00:00 6 0 Calma 10 Norte 0 -- -- 94
2020-03-23 06:00:00 6.4 4 Norte 5 Nordeste 0 -- -- 93
2020-03-23 05:00:00 8.1 3 Oeste 6 Oeste 0 -- -- 89
2020-03-23 04:00:00 9.8 5 Sudeste 29 Nordeste 0 -- -- 81
2020-03-23 03:00:00 7.8 3 Nordeste 12 Norte 0 -- -- 95
2020-03-23 02:00:00 8.4 4 Norte 12 Norte 0 -- -- 92
2020-03-23 01:00:00 8.9 4 Norte 12 Norte 0 -- -- 92
2020-03-23 00:00:00 9.1 6 Sudeste 10 Oeste 0 -- -- 91
2020-03-22 23:00:00 9.5 4 Oeste 10 Sudoeste 0 -- -- 88
2020-03-22 22:00:00 9.7 3 Nordeste 5 Norte 0 -- -- 87
2020-03-22 21:00:00 9.8 4 Nordeste 10 Norte 0 -- -- 86
2020-03-22 20:00:00 11.3 6 Norte 11 Norte 0 -- -- 80
2020-03-22 19:00:00 14 3 Sudoeste 14 Oeste 0 -- -- 70
2020-03-22 18:00:00 14 8 Sudoeste 14 Sudoeste 0 -- -- 66
2020-03-22 17:00:00 14.9 3 Sudoeste 14 Sur 0 -- -- 62
2020-03-22 16:00:00 16.2 5 Sur 14 Sur 0 -- -- 55
2020-03-22 15:00:00 14.4 8 Sudeste 15 Nordeste 0 -- -- 60
2020-03-22 14:00:00 14.5 4 Nordeste 22 Nordeste 0 -- -- 58
2020-03-22 13:00:00 14 13 Nordeste 23 Nordeste 0 -- -- 61
2020-03-22 12:00:00 12.7 17 Nordeste 26 Nordeste 0 -- -- 67
2020-03-22 11:00:00 11.1 5 Sudeste 10 Sudeste 0 -- -- 81
2020-03-22 10:00:00 7 4 Noroeste 9 Sudeste 0 -- -- 93
2020-03-22 09:00:00 5.9 4 Oeste 8 Noroeste 0 -- -- 98
2020-03-22 08:00:00 3.7 2 Norte 9 Nordeste 0 -- -- 98
2020-03-22 07:00:00 3.7 4 Norte 8 Norte 0 -- -- 95
2020-03-22 06:00:00 4.4 3 Norte 10 Norte 0 -- -- 94
2020-03-22 05:00:00 4.6 4 Nordeste 10 Norte 0 -- -- 95
2020-03-22 04:00:00 5.1 9 Norte 11 Norte 0 -- -- 93
2020-03-22 03:00:00 5.9 6 Norte 13 Norte 0 -- -- 90
2020-03-22 02:00:00 7.2 8 Norte 10 Norte 0 -- -- 88
2020-03-22 01:00:00 7.9 6 Norte 9 Norte 0 -- -- 86
2020-03-22 00:00:00 7 4 Norte 13 Norte 0 -- -- 86
2020-03-21 23:00:00 5.9 6 Norte 13 Norte 0 -- -- 89
2020-03-21 22:00:00 6.4 10 Norte 13 Norte 0 -- -- 88
2020-03-21 21:00:00 6.8 7 Norte 12 Norte 0 -- -- 89
2020-03-21 20:00:00 8.4 4 Noroeste 10 Sur 0 -- -- 83
2020-03-21 19:00:00 12.3 4 Sudeste 13 Este 0 -- -- 61
2020-03-21 18:00:00 12.2 4 Este 17 Este 0 -- -- 62
2020-03-21 17:00:00 12.6 12 Sudeste 22 Sudeste 0 -- -- 68
2020-03-21 16:00:00 11.6 6 Este 15 Este 0 -- -- 69
2020-03-21 15:00:00 11.2 6 Sudeste 14 Este 0 -- -- 80
2020-03-21 14:00:00 9.9 2 Nordeste 8 Noroeste 0 -- -- 87
2020-03-21 13:00:00 8.4 3 Sudoeste 12 Sudoeste 0.8 -- -- 92
2020-03-21 12:00:00 8.1 9 Sur 17 Sur 1 -- -- 92
2020-03-21 11:00:00 8 8 Sudeste 19 Este 0.6 -- -- 94
2020-03-21 10:00:00 7.9 9 Este 17 Este 0.6 -- -- 94
2020-03-21 09:00:00 7.5 6 Sudeste 17 Este 0.8 -- -- 93
2020-03-21 08:00:00 7.8 8 Este 18 Este 0.2 -- -- 92
2020-03-21 07:00:00 8 3 Este 9 Nordeste 0.2 -- -- 94
2020-03-21 06:00:00 8 3 Este 17 Nordeste 1.6 -- -- 98
2020-03-21 05:00:00 7.9 0 Calma 8 Norte 1.8 -- -- 97
2020-03-21 04:00:00 8.1 5 Norte 9 Norte 3.2 -- -- 97
2020-03-21 03:00:00 8.5 6 Nordeste 8 Nordeste 3.8 -- -- 97
2020-03-21 02:00:00 8.7 3 Sudoeste 10 Este 2.4 -- -- 97
2020-03-21 01:00:00 8.9 9 Este 22 Sudoeste 3.6 -- -- 96
2020-03-21 00:00:00 9.7 9 Sudoeste 16 Sudoeste 7.6 -- -- 97
2020-03-20 23:00:00 10.3 5 Oeste 10 Oeste 0.2 -- -- 96
2020-03-20 22:00:00 10.3 4 Norte 9 Norte 0.4 -- -- 95
2020-03-20 21:00:00 10.3 4 Nordeste 7 Nordeste 3 -- -- 95
2020-03-20 20:00:00 10.5 3 Noroeste 17 Este 5 -- -- 95
2020-03-20 19:00:00 10.6 9 Sudeste 23 Este 1.4 -- -- 93
2020-03-20 18:00:00 10.7 10 Este 19 Este 1.6 -- -- 92
2020-03-20 17:00:00 11.2 13 Este 26 Este 0 -- -- 88
2020-03-20 16:00:00 11.4 9 Este 23 Este 0 -- -- 88
2020-03-20 15:00:00 11.2 7 Este 18 Sudeste 1.4 -- -- 92
2020-03-20 14:00:00 10.9 8 Sur 31 Sudeste 0.2 -- -- 86
2020-03-20 13:00:00 10.5 15 Este 25 Este 0.2 -- -- 88
2020-03-20 12:00:00 10.6 10 Este 18 Este 0.2 -- -- 89
2020-03-20 11:00:00 10.2 0 Calma 13 Nordeste 1.8 -- -- 93
2020-03-20 10:00:00 10.2 4 Sudoeste 14 Nordeste 4.6 -- -- 93
2020-03-20 09:00:00 10.5 3 Sudoeste 13 Sudoeste 2.6 -- -- 90
2020-03-20 08:00:00 10.6 4 Sudoeste 17 Sudeste 0.4 -- -- 86
2020-03-20 07:00:00 11.8 5 Sudoeste 20 Sudeste 0 -- -- 77
2020-03-20 06:00:00 12.2 10 Sur 22 Sur 0 -- -- 72
2020-03-20 05:00:00 11.9 4 Oeste 11 Oeste 0 -- -- 76
2020-03-20 04:00:00 12.8 4 Sur 23 Sudeste 0 -- -- 70
2020-03-20 03:00:00 13.3 12 Sudeste 26 Este 0 -- -- 68
2020-03-20 02:00:00 13.6 12 Este 26 Sudeste 0 -- -- 67
2020-03-20 01:00:00 12.7 3 Sudeste 10 Sur 0 -- -- 68
2020-03-20 00:00:00 12.1 4 Oeste 7 Oeste 0 -- -- 71
2020-03-19 23:00:00 11.3 3 Noroeste 7 Oeste 0 -- -- 76
2020-03-19 22:00:00 11.4 3 Noroeste 10 Noroeste 0 -- -- 75
2020-03-19 21:00:00 11.3 5 Norte 14 Norte 0 -- -- 78
2020-03-19 20:00:00 12.3 7 Norte 9 Noroeste 0 -- -- 78
2020-03-19 19:00:00 14.9 3 Sur 8 Sudeste 0 -- -- 62
2020-03-19 18:00:00 15.8 3 Sur 15 Sur 0 -- -- 61
2020-03-19 17:00:00 16.3 11 Sur 18 Sur 0 -- -- 57
2020-03-19 16:00:00 17.5 7 Sur 15 Sur 0 -- -- 56
2020-03-19 15:00:00 17.6 3 Sur 11 Sur 0 -- -- 54
2020-03-19 14:00:00 16.2 5 Sudoeste 12 Sudoeste 0 -- -- 56
2020-03-19 13:00:00 14 5 Sur 8 Sudeste 0 -- -- 62
2020-03-19 12:00:00 13.2 4 Noroeste 10 Oeste 0 -- -- 61
2020-03-19 11:00:00 12.4 4 Oeste 9 Oeste 0 -- -- 64
2020-03-19 10:00:00 11.7 6 Oeste 11 Sudoeste 0 -- -- 67
2020-03-19 09:00:00 11.1 4 Oeste 12 Sudoeste 0 -- -- 70
2020-03-19 08:00:00 10.2 6 Oeste 12 Oeste 0 -- -- 71
2020-03-19 07:00:00 10.9 5 Oeste 12 Oeste 0 -- -- 68
2020-03-19 06:00:00 12.1 4 Sudoeste 22 Este 0 -- -- 65
2020-03-19 05:00:00 13.5 14 Sudeste 23 Este 0 -- -- 58
2020-03-19 04:00:00 13.1 6 Este 20 Sur 0 -- -- 66
2020-03-19 03:00:00 13.8 5 Sur 13 Este 0 -- -- 64
2020-03-19 02:00:00 14.5 8 Este 24 Este 0 -- -- 61
2020-03-19 01:00:00 14.6 14 Este 23 Este 0 -- -- 61
2020-03-19 00:00:00 11.6 7 Norte 11 Noroeste 0 -- -- 80
2020-03-18 23:00:00 11.8 7 Norte 10 Norte 0 -- -- 79
2020-03-18 22:00:00 12 3 Nordeste 10 Norte 0 -- -- 79
2020-03-18 21:00:00 12.6 7 Norte 10 Norte 0 -- -- 77
2020-03-18 20:00:00 13.8 5 Oeste 10 Oeste 0 -- -- 71
2020-03-18 19:00:00 15 5 Noroeste 9 Noroeste 0 -- -- 69
2020-03-18 18:00:00 16 3 Norte 13 Sudeste 0 -- -- 64
2020-03-18 17:00:00 17 7 Sur 14 Sur 0 -- -- 60
2020-03-18 16:00:00 18.7 8 Sur 14 Sur 0 -- -- 53
2020-03-18 15:00:00 19.5 9 Sudeste 22 Sudeste 0 -- -- 46
2020-03-18 14:00:00 19.6 5 Noroeste 17 Sur 0 -- -- 46
2020-03-18 13:00:00 18.6 5 Sur 14 Sudoeste 0 -- -- 48
2020-03-18 12:00:00 16 7 Sudoeste 12 Oeste 0 -- -- 60
2020-03-18 11:00:00 14.3 2 Sudeste 7 Sur 0 -- -- 69
2020-03-18 10:00:00 10.6 4 Sudoeste 12 Sur 0 -- -- 83
2020-03-18 09:00:00 8.7 3 Sudoeste 11 Norte 0 -- -- 87
2020-03-18 08:00:00 7.1 5 Nordeste 8 Norte 0 -- -- 90
2020-03-18 07:00:00 9 3 Noroeste 9 Oeste 0 -- -- 81
2020-03-18 06:00:00 8.6 4 Sudoeste 10 Noroeste 0 -- -- 82
2020-03-18 05:00:00 9.6 4 Norte 12 Norte 0 -- -- 77
2020-03-18 04:00:00 10.1 7 Norte 9 Norte 0 -- -- 73
2020-03-18 03:00:00 12.3 3 Nordeste 15 Norte 0 -- -- 63
2020-03-18 02:00:00 11.2 3 Noroeste 9 Nordeste 0 -- -- 69
2020-03-18 01:00:00 12.9 2 Nordeste 17 Este 0 -- -- 61
2020-03-18 00:00:00 13 7 Norte 15 Norte 0 -- -- 60
2020-03-17 23:00:00 12.7 6 Nordeste 14 Norte 0 -- -- 61
2020-03-17 22:00:00 13.6 12 Nordeste 20 Nordeste 0 -- -- 55
2020-03-17 21:00:00 12.8 7 Nordeste 21 Nordeste 0 -- -- 59
2020-03-17 20:00:00 12.7 9 Norte 16 Nordeste 0 -- -- 63
2020-03-17 19:00:00 15.3 9 Este 18 Este 0 -- -- 51
2020-03-17 18:00:00 16.1 14 Este 31 Este 0 -- -- 49
2020-03-17 17:00:00 16.4 17 Sudeste 36 Sudeste 0 -- -- 47
2020-03-17 16:00:00 16.2 14 Este 30 Sudeste 0 -- -- 47
2020-03-17 15:00:00 16.1 19 Sudeste 33 Este 0 -- -- 49
2020-03-17 14:00:00 15.7 22 Este 36 Este 0 -- -- 45
2020-03-17 13:00:00 15.1 17 Sudeste 26 Este 0 -- -- 45
2020-03-17 12:00:00 13.5 5 Nordeste 14 Nordeste 0 -- -- 55
2020-03-17 11:00:00 11.6 6 Sur 15 Oeste 0 -- -- 60
2020-03-17 10:00:00 10 2 Nordeste 23 Nordeste 0 -- -- 63
2020-03-17 09:00:00 7.8 20 Nordeste 32 Nordeste 0 -- -- 70
2020-03-17 08:00:00 6.4 14 Este 35 Nordeste 0 -- -- 75
2020-03-17 07:00:00 5.6 14 Este 37 Norte 0 -- -- 80
2020-03-17 06:00:00 5.7 8 Este 37 Nordeste 0 -- -- 77
2020-03-17 05:00:00 5.7 13 Nordeste 29 Nordeste 0 -- -- 80
2020-03-17 04:00:00 6 10 Norte 23 Norte 0 -- -- 82
2020-03-17 03:00:00 6.6 6 Nordeste 27 Nordeste 0 -- -- 80
2020-03-17 02:00:00 7 23 Nordeste 42 Nordeste 0 -- -- 81
2020-03-17 01:00:00 6.8 21 Nordeste 42 Nordeste 0.4 -- -- 86
2020-03-17 00:00:00 6.9 26 Nordeste 55 Nordeste 0.2 -- -- 85
2020-03-16 23:00:00 7 33 Norte 64 Norte 1 -- -- 82
2020-03-16 22:00:00 6.6 31 Nordeste 63 Nordeste 1.4 -- -- 86
2020-03-16 21:00:00 6.3 29 Nordeste 57 Nordeste 2.4 -- -- 86
2020-03-16 20:00:00 7.3 14 Nordeste 38 Nordeste 0.4 -- -- 81
2020-03-16 19:00:00 9.1 11 Nordeste 40 Norte 0.4 -- -- 75
2020-03-16 18:00:00 8.9 21 Norte 46 Norte 0.4 -- -- 75
2020-03-16 17:00:00 8 21 Norte 44 Norte 0.8 -- -- 78
2020-03-16 16:00:00 8.3 16 Norte 40 Nordeste 0.2 -- -- 74
2020-03-16 15:00:00 8.4 22 Nordeste 55 Norte 0 -- -- 72
2020-03-16 14:00:00 10.3 25 Norte 62 Norte 0 -- -- 50
2020-03-16 13:00:00 9.9 26 Norte 66 Norte 0 -- -- 48
2020-03-16 12:00:00 8.9 37 Norte 65 Norte 0 -- -- 55
2020-03-16 11:00:00 6.2 38 Norte 70 Norte 0 -- -- 72
2020-03-16 10:00:00 6.6 33 Norte 67 Norte 0 -- -- 69
2020-03-16 09:00:00 5.7 37 Norte 70 Norte 0 -- -- 68
2020-03-16 08:00:00 5.2 29 Norte 60 Norte 0 -- -- 68
2020-03-16 07:00:00 4.7 28 Norte 52 Norte 0 -- -- 69
2020-03-16 06:00:00 4.6 25 Norte 51 Norte 0 -- -- 72
2020-03-16 05:00:00 4.9 25 Norte 51 Norte 0 -- -- 69
2020-03-16 04:00:00 4.6 18 Noroeste 49 Norte 0 -- -- 70
2020-03-16 03:00:00 5 22 Noroeste 45 Norte 0 -- -- 67
2020-03-16 02:00:00 5.2 19 Norte 50 Norte 0 -- -- 68
2020-03-16 01:00:00 5.3 19 Norte 39 Norte 0 -- -- 68
2020-03-16 00:00:00 6 14 Norte 39 Noroeste 0 -- -- 66
2020-03-15 23:00:00 6 7 Oeste 44 Norte 0 -- -- 66
2020-03-15 22:00:00 7.2 23 Noroeste 50 Noroeste 0 -- -- 64
2020-03-15 21:00:00 8.5 30 Noroeste 51 Norte 0 -- -- 66
2020-03-15 20:00:00 10.6 23 Noroeste 41 Noroeste 0 -- -- 65
2020-03-15 19:00:00 14.2 17 Oeste 36 Oeste 0 -- -- 56
2020-03-15 18:00:00 15.5 21 Sudoeste 34 Sudoeste 0 -- -- 49
2020-03-15 17:00:00 16.6 23 Oeste 41 Sudoeste 0 -- -- 41
2020-03-15 16:00:00 17.5 17 Sudoeste 35 Oeste 0 -- -- 53
2020-03-15 15:00:00 18.4 17 Oeste 37 Oeste 0 -- -- 58
2020-03-15 14:00:00 19.3 22 Sudoeste 40 Sudoeste 0 -- -- 54
2020-03-15 13:00:00 18.7 8 Sudoeste 19 Sur 0 -- -- 52
2020-03-15 12:00:00 17.7 8 Sur 14 Sur 0 -- -- 57
2020-03-15 11:00:00 16.8 5 Sur 8 Sur 0 -- -- 60
2020-03-15 10:00:00 13.7 3 Oeste 5 Sudoeste 0 -- -- 65
2020-03-15 09:00:00 10.8 2 Nordeste 5 Norte 0 -- -- 78
2020-03-15 08:00:00 8.7 2 Norte 9 Norte 0 -- -- 74
2020-03-15 07:00:00 8.8 8 Norte 10 Norte 0 -- -- 75
2020-03-15 06:00:00 9.9 4 Noroeste 10 Norte 0 -- -- 72
2020-03-15 05:00:00 9.5 6 Norte 9 Norte 0 -- -- 75
2020-03-15 04:00:00 9.6 5 Norte 6 Norte 0 -- -- 74
2020-03-15 03:00:00 10.1 6 Norte 10 Norte 0 -- -- 72
2020-03-15 02:00:00 11.1 0 Calma 5 Norte 0 -- -- 68
2020-03-15 01:00:00 12.6 6 Norte 12 Norte 0 -- -- 62
2020-03-15 00:00:00 13.1 0 Calma 9 Norte 0 -- -- 52
2020-03-14 23:00:00 14.9 5 Norte 8 Nordeste 0 -- -- 41
2020-03-14 22:00:00 15.6 4 Norte 8 Nordeste 0 -- -- 37
2020-03-14 21:00:00 15.6 4 Nordeste 14 Norte 0 -- -- 39
2020-03-14 20:00:00 16.4 12 Norte 14 Norte 0 -- -- 61
2020-03-14 19:00:00 21.9 3 Sur 10 Sudoeste 0 -- -- 45
2020-03-14 18:00:00 23 4 Sur 14 Sudoeste 0 -- -- 40
2020-03-14 17:00:00 23 5 Sudeste 17 Sur 0 -- -- 42
2020-03-14 16:00:00 22.9 9 Sur 19 Sur 0 -- -- 44
2020-03-14 15:00:00 22.5 9 Sudeste 18 Sur 0 -- -- 43
2020-03-14 14:00:00 22.2 11 Sudeste 17 Sudeste 0 -- -- 42
2020-03-14 13:00:00 21.6 4 Este 10 Este 0 -- -- 34
2020-03-14 12:00:00 20.4 6 Sur 24 Nordeste 0 -- -- 43
2020-03-14 11:00:00 19.3 14 Nordeste 35 Nordeste 0 -- -- 36
2020-03-14 10:00:00 16.4 23 Nordeste 47 Nordeste 0 -- -- 53
2020-03-14 09:00:00 15.2 25 Nordeste 44 Nordeste 0 -- -- 52
2020-03-14 08:00:00 14.3 23 Nordeste 41 Nordeste 0 -- -- 56
2020-03-14 07:00:00 14.7 19 Nordeste 45 Nordeste 0 -- -- 55
2020-03-14 06:00:00 14.8 11 Este 39 Nordeste 0 -- -- 54
2020-03-14 05:00:00 14.8 22 Este 39 Este 0 -- -- 55
2020-03-14 04:00:00 15 17 Nordeste 46 Norte 0 -- -- 57
2020-03-14 03:00:00 15.2 15 Nordeste 33 Norte 0 -- -- 58
2020-03-14 02:00:00 14.7 9 Sudeste 33 Este 0 -- -- 60
2020-03-14 01:00:00 15.2 8 Noroeste 34 Este 0 -- -- 61
2020-03-14 00:00:00 14.5 5 Sur 18 Noroeste 0 -- -- 67
2020-03-13 23:00:00 15.1 9 Este 33 Este 0 -- -- 65
2020-03-13 22:00:00 15.8 15 Nordeste 40 Nordeste 0 -- -- 64
2020-03-13 21:00:00 15.8 11 Norte 44 Nordeste 0 -- -- 65
2020-03-13 20:00:00 16.6 7 Sur 28 Sur 0 -- -- 63
2020-03-13 19:00:00 18.3 6 Sur 31 Nordeste 0 -- -- 59
2020-03-13 18:00:00 18.6 11 Nordeste 33 Nordeste 0 -- -- 59
2020-03-13 17:00:00 19 17 Nordeste 28 Nordeste 0 -- -- 59
2020-03-13 16:00:00 19.8 15 Norte 27 Nordeste 0 -- -- 56
2020-03-13 15:00:00 20.4 13 Nordeste 22 Nordeste 0 -- -- 55
2020-03-13 14:00:00 19.8 10 Nordeste 19 Nordeste 0 -- -- 59
2020-03-13 13:00:00 19.3 0 Calma 17 Nordeste 0 -- -- 60
2020-03-13 12:00:00 17.7 9 Nordeste 15 Nordeste 0 -- -- 62
2020-03-13 11:00:00 16.6 7 Nordeste 28 Nordeste 0 -- -- 65
2020-03-13 10:00:00 14.5 18 Nordeste 32 Nordeste 0 -- -- 70
2020-03-13 09:00:00 13.2 14 Nordeste 35 Norte 0 -- -- 76
2020-03-13 08:00:00 12.3 20 Norte 33 Norte 0 -- -- 77
2020-03-13 07:00:00 13.4 10 Norte 23 Norte 0 -- -- 74
2020-03-13 06:00:00 15.2 9 Norte 28 Nordeste 0 -- -- 69
2020-03-13 05:00:00 15.8 19 Nordeste 39 Nordeste 0 -- -- 67
2020-03-13 04:00:00 15.7 14 Nordeste 37 Nordeste 0 -- -- 66
2020-03-13 03:00:00 15.9 7 Norte 24 Este 0 -- -- 67
2020-03-13 02:00:00 16.6 9 Nordeste 27 Este 0 -- -- 66
2020-03-13 01:00:00 16.6 5 Nordeste 14 Nordeste 0 -- -- 67
2020-03-13 00:00:00 17.1 8 Nordeste 23 Norte 0 -- -- 68
2020-03-12 23:00:00 17.4 0 Calma 13 Norte 0 -- -- 67
2020-03-12 22:00:00 17.1 9 Norte 17 Norte 0 -- -- 65
2020-03-12 21:00:00 17 6 Norte 12 Norte 0 -- -- 64
2020-03-12 20:00:00 17.6 9 Norte 10 Norte 0 -- -- 66
2020-03-12 19:00:00 21.2 5 Oeste 11 Sudoeste 0 -- -- 55
2020-03-12 18:00:00 22.8 8 Sudoeste 13 Sudoeste 0 -- -- 47
2020-03-12 17:00:00 23.4 6 Sur 12 Sudoeste 0 -- -- 46
2020-03-12 16:00:00 23.9 6 Sudoeste 15 Sur 0 -- -- 45
2020-03-12 15:00:00 23.5 7 Sur 12 Sur 0 -- -- 43
2020-03-12 14:00:00 22.3 5 Sur 13 Sur 0 -- -- 52
2020-03-12 13:00:00 21.1 5 Sudeste 12 Sur 0 -- -- 60
2020-03-12 12:00:00 20.9 5 Sur 10 Sur 0 -- -- 63
2020-03-12 11:00:00 19.5 3 Sudoeste 8 Nordeste 0 -- -- 58
2020-03-12 10:00:00 16.8 0 Calma 5 Sudoeste 0 -- -- 68
2020-03-12 09:00:00 14.1 3 Sudoeste 9 Norte 0 -- -- 80
2020-03-12 08:00:00 10.9 3 Nordeste 6 Norte 0 -- -- 84
2020-03-12 07:00:00 13.1 4 Noroeste 6 Norte 0 -- -- 71
2020-03-12 06:00:00 12.2 3 Norte 9 Norte 0 -- -- 76
2020-03-12 05:00:00 13.5 5 Norte 9 Norte 0 -- -- 69
2020-03-12 04:00:00 14 2 Norte 8 Norte 0 -- -- 66
2020-03-12 03:00:00 14 4 Nordeste 9 Norte 0 -- -- 66
2020-03-12 02:00:00 15.9 4 Norte 8 Norte 0 -- -- 58
2020-03-12 01:00:00 15.4 0 Calma 11 Norte 0 -- -- 69
2020-03-12 00:00:00 16 9 Norte 12 Norte 0 -- -- 62
2020-03-11 23:00:00 15.2 5 Norte 13 Norte 0 -- -- 70
2020-03-11 22:00:00 16.3 12 Norte 13 Norte 0 -- -- 69
2020-03-11 21:00:00 17 5 Norte 11 Norte 0 -- -- 69
2020-03-11 20:00:00 17.7 7 Norte 10 Norte 0 -- -- 70
2020-03-11 19:00:00 19.7 6 Norte 8 Norte 0 -- -- 67
2020-03-11 18:00:00 21.7 3 Oeste 6 Sur 0 -- -- 62
2020-03-11 17:00:00 22.8 5 Sur 10 Sudeste 0 -- -- 52
2020-03-11 16:00:00 24.4 4 Sur 14 Sudoeste 0 -- -- 44
2020-03-11 15:00:00 24.3 6 Sur 13 Sur 0 -- -- 42
2020-03-11 14:00:00 23.5 6 Sur 13 Sur 0 -- -- 46
2020-03-11 13:00:00 22.3 5 Sur 9 Sudeste 0 -- -- 51
2020-03-11 12:00:00 20.5 5 Sur 8 Sur 0 -- -- 58
2020-03-11 11:00:00 18.1 4 Sur 6 Sudeste 0 -- -- 63
2020-03-11 10:00:00 16.2 0 Calma 4 Sudeste 0 -- -- 72
2020-03-11 09:00:00 13 0 Calma 4 Noroeste 0 -- -- 85
2020-03-11 08:00:00 10.3 0 Calma 8 Norte 0 -- -- 89
2020-03-11 07:00:00 10.7 2 Norte 6 Norte 0 -- -- 88
2020-03-11 06:00:00 10.3 0 Calma 5 Oeste 0 -- -- 84
2020-03-11 05:00:00 11.2 0 Calma 11 Norte 0 -- -- 82
2020-03-11 04:00:00 12.3 10 Norte 11 Norte 0 -- -- 78
2020-03-11 03:00:00 12.4 6 Norte 9 Norte 0 -- -- 77
2020-03-11 02:00:00 12.6 5 Norte 10 Norte 0 -- -- 77
2020-03-11 01:00:00 13.2 8 Norte 10 Norte 0 -- -- 74
2020-03-11 00:00:00 13.9 9 Norte 12 Norte 0 -- -- 71